createdAt,value
2022-11-15T00:05:01.026Z,41.09
2022-11-15T00:11:56.530Z,41.23
2022-11-15T00:19:09.731Z,41.45
2022-11-15T00:26:17.742Z,41.52
2022-11-15T00:33:25.051Z,41.4
2022-11-15T00:40:26.842Z,41.29
2022-11-15T00:47:41.048Z,41.2
2022-11-15T00:54:52.306Z,41.03
2022-11-15T01:01:57.791Z,40.84
2022-11-15T01:09:14.854Z,40.64
2022-11-15T01:16:16.125Z,40.63
2022-11-15T01:23:26.350Z,40.5
2022-11-15T01:30:38.557Z,40.7
2022-11-15T01:37:50.685Z,40.91
2022-11-15T01:45:09.011Z,40.89
2022-11-15T01:52:42.992Z,40.92
2022-11-15T02:00:09.816Z,40.84
2022-11-15T02:07:42.543Z,41.1
2022-11-15T02:14:58.398Z,41.09
2022-11-15T02:22:50.614Z,41.23
2022-11-15T02:30:44.947Z,40.88
2022-11-15T02:38:46.706Z,40.88
2022-11-15T02:46:36.213Z,40.78
2022-11-15T02:53:55.543Z,40.54
2022-11-15T03:01:15.303Z,40.58
2022-11-15T03:08:40.714Z,40.44
2022-11-15T03:16:33.751Z,40.63
2022-11-15T03:24:26.093Z,40.68
2022-11-15T03:31:36.623Z,40.64
2022-11-15T03:39:21.229Z,41.03
2022-11-15T03:47:10.855Z,40.87
2022-11-15T03:54:53.258Z,41.37
2022-11-15T04:01:52.999Z,41.48
2022-11-15T04:09:08.013Z,41.58
2022-11-15T04:16:02.606Z,41.67
2022-11-15T04:23:31.941Z,41.67
2022-11-15T04:30:57.388Z,40.97
2022-11-15T04:37:59.299Z,40.73
2022-11-15T04:45:00.002Z,40.71
2022-11-15T04:52:14.347Z,40.84
2022-11-15T04:59:17.896Z,40.8
2022-11-15T05:06:31.921Z,40.77
2022-11-15T05:13:35.557Z,40.1
2022-11-15T05:19:59.710Z,39.92
2022-11-15T05:26:43.209Z,39.6
2022-11-15T05:33:15.491Z,39.72
2022-11-15T05:40:00.305Z,39.38
2022-11-15T05:46:36.760Z,39.79
2022-11-15T05:53:22.625Z,39.61
2022-11-15T06:00:02.975Z,39.88
2022-11-15T06:06:38.756Z,37.98
2022-11-15T06:13:15.146Z,37.29
2022-11-15T06:19:47.494Z,38.16
2022-11-15T06:26:20.727Z,38.32
2022-11-15T06:32:48.948Z,38.72
2022-11-15T06:39:23.490Z,38.79
2022-11-15T06:45:58.525Z,39.07
2022-11-15T06:52:27.685Z,39.2
2022-11-15T06:58:59.659Z,38.69
2022-11-15T07:05:37.110Z,38.25
2022-11-15T07:12:22.828Z,37.6
2022-11-15T07:18:53.527Z,37.01
2022-11-15T07:25:24.597Z,36.76
2022-11-15T07:31:57.575Z,37.49
2022-11-15T07:38:43.355Z,37.64
2022-11-15T07:45:10.874Z,38
2022-11-15T07:51:51.860Z,38.1
2022-11-15T07:58:26.454Z,37.71
2022-11-15T08:05:09.598Z,37.6
2022-11-15T08:11:56.847Z,37.88
2022-11-15T08:18:27.470Z,37.87
2022-11-15T08:24:55.695Z,38.32
2022-11-15T08:31:30.997Z,38.17
2022-11-15T08:38:12.764Z,38.1
2022-11-15T08:44:48.516Z,38.36
2022-11-15T08:51:16.456Z,38.65
2022-11-15T08:57:55.078Z,38.48
2022-11-15T09:04:29.093Z,38.65
2022-11-15T09:10:55.580Z,38.69
2022-11-15T09:17:33.426Z,38.95
2022-11-15T09:24:09.495Z,39.09
2022-11-15T09:30:46.027Z,38.89
2022-11-15T09:37:24.338Z,38.73
2022-11-15T09:44:26.382Z,38.77
2022-11-15T09:51:18.906Z,39.02
2022-11-15T09:58:19.868Z,39
2022-11-15T10:05:16.638Z,39.25
2022-11-15T10:12:18.645Z,39.03
2022-11-15T10:19:21.281Z,39.13
2022-11-15T10:26:25.596Z,39.16
2022-11-15T10:33:23.070Z,39.19
2022-11-15T10:40:13.992Z,38.93
2022-11-15T10:47:30.832Z,39.05
2022-11-15T10:54:42.121Z,39.01
2022-11-15T11:01:52.642Z,39.14
2022-11-15T11:08:57.214Z,38.97
2022-11-15T11:15:57.399Z,38.95
2022-11-15T11:23:17.192Z,39.05
2022-11-15T11:30:43.228Z,38.99
2022-11-15T11:37:45.921Z,38.96
2022-11-15T11:44:44.883Z,38.96
2022-11-15T11:51:56.284Z,38.95
2022-11-15T11:59:14.032Z,38.85
2022-11-15T12:06:28.832Z,38.82
2022-11-15T12:13:47.791Z,38.83
2022-11-15T12:20:43.265Z,38.65
2022-11-15T12:27:47.904Z,38.83
2022-11-15T12:35:00.774Z,38.73
2022-11-15T12:42:23.068Z,38.75
2022-11-15T12:49:30.510Z,39.02
2022-11-15T12:56:38.078Z,38.93
2022-11-15T13:03:44.702Z,38.72
2022-11-15T13:10:51.156Z,38.92
2022-11-15T13:17:55.201Z,38.73
2022-11-15T13:25:08.714Z,39.07
2022-11-15T13:32:23.642Z,38.91
2022-11-15T13:39:23.294Z,38.95
2022-11-15T13:46:22.869Z,38.54
2022-11-15T13:53:13.658Z,38.37
2022-11-15T14:00:18.153Z,38.5
2022-11-15T14:07:31.766Z,39.12
2022-11-15T14:14:36.114Z,39.15
2022-11-15T14:21:27.991Z,39.24
2022-11-15T14:28:37.458Z,39.08
2022-11-15T14:35:34.126Z,39.19
2022-11-15T14:42:22.203Z,38.99
2022-11-15T14:49:04.922Z,39.09
2022-11-15T14:55:46.676Z,39.16
2022-11-15T15:02:26.119Z,39.3
2022-11-15T15:09:11.847Z,39.1
2022-11-15T15:16:08.345Z,38.94
2022-11-15T15:22:51.159Z,39.04
2022-11-15T15:29:27.857Z,39.11
2022-11-15T15:36:12.549Z,39.12
2022-11-15T15:42:57.034Z,39.15
2022-11-15T15:49:34.199Z,39.08
2022-11-15T15:56:21.662Z,38.96
2022-11-15T16:03:18.354Z,38.93
2022-11-15T16:10:12.235Z,39.12
2022-11-15T16:16:52.593Z,39.14
2022-11-15T16:23:43.286Z,38.75
2022-11-15T16:30:22.248Z,38.78
2022-11-15T16:37:12.132Z,38.87
2022-11-15T16:43:42.689Z,38.94
2022-11-15T16:50:28.341Z,38.73
2022-11-15T16:56:59.988Z,38.68
2022-11-15T17:03:39.146Z,38.76
2022-11-15T17:10:07.863Z,38.89
2022-11-15T17:16:38.226Z,39.24
2022-11-15T17:23:07.067Z,39.39
2022-11-15T17:29:36.019Z,39.66
2022-11-15T17:36:00.128Z,39.57
2022-11-15T17:42:42.745Z,39.72
2022-11-15T17:49:20.823Z,39.73
2022-11-15T17:55:50.244Z,39.67
2022-11-15T18:02:22.185Z,39.69
2022-11-15T18:08:49.354Z,39.72
2022-11-15T18:15:21.658Z,39.65
2022-11-15T18:21:52.922Z,39.61
2022-11-15T18:28:47.933Z,39.49
2022-11-15T18:35:19.850Z,39.59
2022-11-15T18:42:12.057Z,39.32
2022-11-15T18:48:45.338Z,39.17
2022-11-15T18:55:10.743Z,39.31
2022-11-15T19:01:42.950Z,39.46
2022-11-15T19:08:20.952Z,39.69
2022-11-15T19:14:55.309Z,39.33
2022-11-15T19:21:32.388Z,39.38
2022-11-15T19:28:06.969Z,39.31
2022-11-15T19:34:40.490Z,39.43
2022-11-15T19:41:18.236Z,39.38
2022-11-15T19:47:50.251Z,39.55
2022-11-15T19:54:22.233Z,39.58
2022-11-15T20:00:51.516Z,39.62
2022-11-15T20:07:30.376Z,39.49
2022-11-15T20:14:06.708Z,39.42
2022-11-15T20:20:32.269Z,39.39
2022-11-15T20:27:08.913Z,39.49
2022-11-15T20:33:42.267Z,39.46
2022-11-15T20:40:11.613Z,39.61
2022-11-15T20:46:39.949Z,39.61
2022-11-15T20:53:03.015Z,39.63
2022-11-15T20:59:33.157Z,39.59
2022-11-15T21:06:06.288Z,39.67
2022-11-15T21:12:35.972Z,39.81
2022-11-15T21:18:59.083Z,39.83
2022-11-15T21:25:35.166Z,39.77
2022-11-15T21:32:07.942Z,39.75
2022-11-15T21:38:41.726Z,39.77
2022-11-15T21:45:20.165Z,39.68
2022-11-15T21:51:49.086Z,39.68
2022-11-15T21:58:21.090Z,39.78
2022-11-15T22:04:49.266Z,39.64
2022-11-15T22:11:12.894Z,39.48
2022-11-15T22:17:49.293Z,39.45
2022-11-15T22:24:21.510Z,39.57
2022-11-15T22:30:45.913Z,39.43
2022-11-15T22:37:20.876Z,39.57
2022-11-15T22:43:51.569Z,39.25
2022-11-15T22:50:32.731Z,39.42
2022-11-15T22:57:17.415Z,39.65
2022-11-15T23:03:58.877Z,39.48
2022-11-15T23:10:25.694Z,39.67
2022-11-15T23:17:06.381Z,39.45
2022-11-15T23:23:43.564Z,39.49
2022-11-15T23:30:18.333Z,39.61
2022-11-15T23:37:08.235Z,39.49
2022-11-15T23:43:44.873Z,39.72
2022-11-15T23:50:17.810Z,39.77
2022-11-15T23:56:54.320Z,39.71
